Time;durP1;ratioP1;P1;durP2;ratioP2;P2;SDS_P1;SDS_P2;PMS_P1;PMS_P2;Temp;Humidity;BMP_temperature;BMP_pressure;BME280_temperature;BME280_humidity;BME280_pressure;Samples;Min_cycle;Max_cycle;Signal;HPM_P1;HPM_P2
2021/04/10 00:02:09;;;;;;;4.43;1.70;;;21.50;68.90;;;;;;5015299;28;20064;-52
2021/04/10 00:04:35;;;;;;;4.63;1.70;;;21.50;68.60;;;;;;5015791;28;20022;-47
2021/04/10 00:07:01;;;;;;;3.83;1.75;;;21.40;68.70;;;;;;5013838;28;20390;-58
2021/04/10 00:09:27;;;;;;;4.65;1.70;;;21.50;68.70;;;;;;5014760;28;20092;-50
2021/04/10 00:11:53;;;;;;;8.20;2.38;;;21.50;68.60;;;;;;5015600;28;20030;-54
2021/04/10 00:14:19;;;;;;;3.97;1.75;;;21.40;68.30;;;;;;5015569;28;20022;-54
2021/04/10 00:16:45;;;;;;;3.85;1.83;;;21.40;68.10;;;;;;5015291;28;20022;-56
2021/04/10 00:19:12;;;;;;;6.25;1.50;;;21.50;68.10;;;;;;5015348;28;20046;-53
2021/04/10 00:21:37;;;;;;;;;;;21.40;67.90;;;;;;5015657;28;20375;-49
2021/04/10 00:24:03;;;;;;;3.95;1.45;;;21.50;67.70;;;;;;5013555;28;19909;-54
2021/04/10 00:26:29;;;;;;;5.68;1.65;;;21.40;67.40;;;;;;5014303;28;20025;-50
2021/04/10 00:28:55;;;;;;;5.32;1.45;;;21.50;67.40;;;;;;5014795;28;20540;-57
2021/04/10 00:31:20;;;;;;;4.93;1.52;;;21.50;67.10;;;;;;5014834;28;20029;-52
2021/04/10 00:33:47;;;;;;;2.88;1.58;;;21.50;67.10;;;;;;5014897;28;20026;-52
2021/04/10 00:36:13;;;;;;;2.35;1.30;;;21.40;67.00;;;;;;5015119;28;20034;-53
2021/04/10 00:38:39;;;;;;;5.65;2.13;;;21.40;66.80;;;;;;5014884;28;20593;-52
2021/04/10 00:41:07;;;;;;;4.32;1.60;;;21.40;67.90;;;;;;5014060;28;20033;-52
2021/04/10 00:43:33;;;;;;;5.15;1.52;;;21.40;66.80;;;;;;5014830;28;20037;-54
2021/04/10 00:45:59;;;;;;;4.63;2.10;;;21.40;66.70;;;;;;5015222;28;20030;-49
2021/04/10 00:48:25;;;;;;;5.47;2.05;;;21.40;66.50;;;;;;5015187;28;20459;-50
2021/04/10 00:50:52;;;;;;;5.88;1.73;;;21.40;66.30;;;;;;5014227;28;20104;-46
2021/04/10 00:53:20;;;;;;;3.15;1.63;;;21.40;66.20;;;;;;5014684;28;20355;-56
2021/04/10 00:55:47;;;;;;;2.90;1.73;;;21.30;66.20;;;;;;5014665;28;20050;-50
2021/04/10 00:58:14;;;;;;;3.45;1.42;;;21.40;66.20;;;;;;5010415;28;20019;-49
2021/04/10 01:00:41;;;;;;;3.33;1.40;;;21.40;66.10;;;;;;4996180;28;20054;-51
2021/04/10 01:03:06;;;;;;;6.33;1.43;;;21.40;66.10;;;;;;5014362;28;20038;-51
2021/04/10 01:05:32;;;;;;;3.50;1.88;;;21.40;65.90;;;;;;5013898;28;20057;-51
2021/04/10 01:07:58;;;;;;;2.05;1.23;;;21.30;65.90;;;;;;5014767;28;20030;-47
2021/04/10 01:10:25;;;;;;;2.53;1.20;;;21.30;65.90;;;;;;5013280;28;20093;-54
2021/04/10 01:13:15;;;;;;;6.30;1.60;;;21.30;65.70;;;;;;5014127;28;20117;-52
2021/04/10 01:15:43;;;;;;;3.03;1.45;;;21.30;65.50;;;;;;5013470;28;20491;-53
2021/04/10 01:18:25;;;;;;;2.78;1.27;;;21.30;65.50;;;;;;5013937;28;20026;-47
2021/04/10 01:20:59;;;;;;;4.50;1.42;;;21.30;65.30;;;;;;5012608;28;20030;-49
2021/04/10 01:23:53;;;;;;;3.95;1.58;;;21.30;65.50;;;;;;5014469;28;20084;-52
2021/04/10 01:26:24;;;;;;;6.50;2.88;;;21.30;65.20;;;;;;5013262;28;20033;-48
2021/04/10 01:28:58;;;;;;;3.30;1.20;;;21.30;65.20;;;;;;5013864;28;20026;-52
2021/04/10 01:31:44;;;;;;;3.78;1.48;;;21.20;65.00;;;;;;5013988;28;20026;-57
2021/04/10 01:34:26;;;;;;;6.32;1.45;;;21.20;65.10;;;;;;4999718;28;20041;-52
2021/04/10 01:36:54;;;;;;;2.97;1.35;;;21.30;65.00;;;;;;5013341;28;20045;-52
2021/04/10 01:39:22;;;;;;;4.00;1.30;;;21.20;64.90;;;;;;5013268;28;20080;-58
2021/04/10 01:41:54;;;;;;;4.85;1.30;;;21.20;64.80;;;;;;5014326;28;20080;-57
2021/04/10 01:44:21;;;;;;;3.45;1.23;;;21.20;65.20;;;;;;5014143;28;20026;-55
2021/04/10 01:46:48;;;;;;;3.53;1.48;;;21.20;64.90;;;;;;5013411;28;20076;-64
2021/04/10 01:49:14;;;;;;;3.00;1.35;;;21.20;65.00;;;;;;5006086;28;20056;-53
2021/04/10 01:51:41;;;;;;;4.73;1.40;;;21.20;64.90;;;;;;5002037;28;20076;-52
2021/04/10 01:54:08;;;;;;;2.08;1.25;;;21.20;64.80;;;;;;5012833;28;20092;-48
2021/04/10 01:56:38;;;;;;;2.20;1.20;;;21.20;64.90;;;;;;5013440;28;20490;-53
2021/04/10 01:59:04;;;;;;;3.75;1.38;;;21.20;64.70;;;;;;5011764;28;20117;-57
2021/04/10 02:01:31;;;;;;;4.37;1.43;;;21.20;64.70;;;;;;5013112;28;20084;-57
2021/04/10 02:03:58;;;;;;;3.80;1.40;;;21.10;64.60;;;;;;5013912;28;20344;-53
2021/04/10 02:06:24;;;;;;;;;;;21.10;64.60;;;;;;5013284;28;20083;-57
2021/04/10 02:08:53;;;;;;;3.92;1.50;;;21.10;64.60;;;;;;5012642;28;19913;-47
2021/04/10 02:11:20;;;;;;;4.82;1.90;;;21.20;64.60;;;;;;5013477;28;20032;-53
2021/04/10 02:13:46;;;;;;;;;;;21.10;64.70;;;;;;5013640;28;20057;-58
2021/04/10 02:16:12;;;;;;;2.13;1.23;;;21.10;64.60;;;;;;5012422;28;19924;-50
2021/04/10 02:18:38;;;;;;;2.30;1.10;;;21.10;64.50;;;;;;5013574;28;20026;-54
2021/04/10 02:21:08;;;;;;;2.77;1.53;;;21.10;64.60;;;;;;5013729;28;20036;-49
2021/04/10 02:23:38;;;;;;;4.75;1.52;;;21.10;64.40;;;;;;5013798;28;20036;-56
2021/04/10 02:26:04;;;;;;;2.95;1.40;;;21.10;64.20;;;;;;5013236;28;20022;-58
2021/04/10 02:28:30;;;;;;;2.17;1.13;;;21.10;64.10;;;;;;5011887;28;20029;-62
2021/04/10 02:30:58;;;;;;;3.85;1.75;;;21.10;64.20;;;;;;5008874;28;20200;-49
2021/04/10 02:33:33;;;;;;;3.78;1.52;;;21.10;64.10;;;;;;5009812;28;20444;-51
2021/04/10 02:36:00;;;;;;;1.80;1.27;;;21.10;64.10;;;;;;5009920;28;20025;-57
2021/04/10 02:38:29;;;;;;;4.28;1.48;;;21.10;64.10;;;;;;5010115;28;20026;-47
2021/04/10 02:41:05;;;;;;;4.35;1.50;;;21.10;64.10;;;;;;5009810;28;20044;-46
2021/04/10 02:43:34;;;;;;;3.17;1.20;;;21.10;64.20;;;;;;5009912;28;20386;-47
2021/04/10 02:46:02;;;;;;;3.83;1.20;;;21.00;64.10;;;;;;5008152;28;20052;-48
2021/04/10 02:48:38;;;;;;;3.90;1.45;;;21.00;64.10;;;;;;5008749;28;20026;-45
2021/04/10 02:51:06;;;;;;;4.53;1.42;;;21.10;64.10;;;;;;5009472;28;20026;-49
2021/04/10 02:53:35;;;;;;;;;;;21.00;63.90;;;;;;5008737;28;20391;-46
2021/04/10 02:56:02;;;;;;;3.15;1.23;;;21.00;63.90;;;;;;5008576;28;19918;-48
2021/04/10 02:58:30;;;;;;;2.85;1.27;;;21.10;64.10;;;;;;5009579;28;20107;-49
2021/04/10 03:00:58;;;;;;;4.13;1.50;;;21.00;64.10;;;;;;5009922;28;20042;-47
2021/04/10 03:03:23;;;;;;;;;;;21.00;63.80;;;;;;5010354;28;20029;-47
2021/04/10 03:05:49;;;;;;;4.75;1.23;;;21.00;63.90;;;;;;5008626;28;20530;-47
2021/04/10 03:08:21;;;;;;;5.00;1.80;;;21.00;64.00;;;;;;5007804;28;20531;-48
2021/04/10 03:10:49;;;;;;;3.80;1.35;;;21.00;64.00;;;;;;5022008;28;20088;-47
2021/04/10 03:13:17;;;;;;;2.47;1.08;;;21.00;64.10;;;;;;5019522;28;20844;-47
2021/04/10 03:15:43;;;;;;;3.97;1.55;;;21.00;64.10;;;;;;5004888;28;20479;-50
2021/04/10 03:18:10;;;;;;;2.30;1.38;;;21.00;64.10;;;;;;4989651;28;20035;-50
2021/04/10 03:20:36;;;;;;;2.25;1.25;;;21.00;64.20;;;;;;4990065;28;20058;-50
2021/04/10 03:23:02;;;;;;;4.05;1.13;;;21.00;64.20;;;;;;5005141;28;20026;-49
2021/04/10 03:25:29;;;;;;;2.17;1.25;;;21.00;64.00;;;;;;5008848;28;20096;-52
2021/04/10 03:27:54;;;;;;;4.43;1.43;;;21.00;64.10;;;;;;5009401;28;20030;-50
2021/04/10 03:30:21;;;;;;;2.70;1.30;;;21.00;64.20;;;;;;5009217;28;20386;-50
2021/04/10 03:32:47;;;;;;;4.07;1.75;;;21.00;64.10;;;;;;5009359;28;20026;-51
2021/04/10 03:35:14;;;;;;;2.40;1.50;;;21.00;64.00;;;;;;5009515;28;20044;-50
2021/04/10 03:37:40;;;;;;;;;;;21.00;64.10;;;;;;5008561;28;20038;-50
2021/04/10 03:40:06;;;;;;;2.83;1.40;;;21.00;64.10;;;;;;5008603;28;20381;-56
2021/04/10 03:42:41;;;;;;;6.72;1.73;;;21.00;64.20;;;;;;5008241;28;20410;-51
2021/04/10 03:45:13;;;;;;;2.45;1.50;;;21.00;64.20;;;;;;5008450;28;20061;-55
2021/04/10 03:47:39;;;;;;;4.07;1.13;;;21.00;64.30;;;;;;5009141;28;20466;-51
2021/04/10 03:50:06;;;;;;;3.92;1.40;;;21.00;64.30;;;;;;5009219;28;20037;-58
2021/04/10 03:52:32;;;;;;;2.90;1.30;;;21.00;64.20;;;;;;4995992;28;20026;-51
2021/04/10 03:54:58;;;;;;;2.90;1.10;;;21.00;64.20;;;;;;5004495;28;20398;-57
2021/04/10 03:57:24;;;;;;;2.40;1.40;;;21.00;64.10;;;;;;5008131;28;20037;-58
2021/04/10 03:59:50;;;;;;;2.83;1.30;;;21.00;64.10;;;;;;5008202;28;20048;-51
2021/04/10 04:02:15;;;;;;;3.17;1.45;;;21.00;63.90;;;;;;5009321;28;20491;-54
2021/04/10 04:04:41;;;;;;;2.08;1.00;;;21.00;63.80;;;;;;5012814;28;20048;-57
2021/04/10 04:07:08;;;;;;;3.65;1.30;;;21.00;63.80;;;;;;5011876;28;20025;-61
2021/04/10 04:09:35;;;;;;;7.50;1.23;;;21.00;63.80;;;;;;5012109;28;20468;-62
2021/04/10 04:12:01;;;;;;;3.50;1.55;;;21.00;63.70;;;;;;5012381;28;20037;-50
2021/04/10 04:14:26;;;;;;;1.42;1.00;;;21.00;63.80;;;;;;5012586;28;20022;-53
2021/04/10 04:16:52;;;;;;;4.45;1.63;;;21.00;63.80;;;;;;5011930;28;20441;-57
2021/04/10 04:19:18;;;;;;;1.83;1.15;;;21.00;63.70;;;;;;5011687;28;20032;-59
2021/04/10 04:21:44;;;;;;;2.25;1.23;;;21.00;63.70;;;;;;5010923;28;20433;-54
2021/04/10 04:24:10;;;;;;;4.80;1.35;;;21.10;63.80;;;;;;5011588;28;20036;-54
2021/04/10 04:26:35;;;;;;;3.20;1.15;;;21.00;63.70;;;;;;5011535;28;20376;-50
2021/04/10 04:29:02;;;;;;;2.67;1.33;;;21.00;63.80;;;;;;5011403;28;20030;-53
2021/04/10 04:31:27;;;;;;;2.03;1.10;;;21.00;63.80;;;;;;5011822;28;20022;-64
2021/04/10 04:33:53;;;;;;;2.83;1.02;;;21.00;63.80;;;;;;5011195;28;20048;-61
2021/04/10 04:36:19;;;;;;;2.95;1.27;;;21.10;63.80;;;;;;5011041;28;20482;-59
2021/04/10 04:38:44;;;;;;;4.43;1.23;;;21.00;63.70;;;;;;5011141;28;20020;-60
2021/04/10 04:41:10;;;;;;;4.78;1.17;;;21.00;63.70;;;;;;5011506;28;20148;-58
2021/04/10 04:43:36;;;;;;;3.35;1.25;;;21.00;63.60;;;;;;5010856;28;20256;-61
2021/04/10 04:46:02;;;;;;;5.00;1.27;;;21.00;63.60;;;;;;4992012;28;20475;-62
2021/04/10 04:48:27;;;;;;;2.10;1.13;;;21.00;63.60;;;;;;4996540;28;20141;-53
2021/04/10 04:50:53;;;;;;;3.80;1.40;;;21.00;63.60;;;;;;5011584;28;20486;-51
2021/04/10 04:53:19;;;;;;;2.45;1.25;;;21.00;63.50;;;;;;5011861;28;20486;-63
2021/04/10 04:55:45;;;;;;;5.30;1.45;;;21.00;63.50;;;;;;5011405;28;20085;-59
2021/04/10 04:58:11;;;;;;;5.38;1.30;;;21.00;63.40;;;;;;4999504;28;20058;-52
2021/04/10 05:00:36;;;;;;;5.90;1.30;;;21.00;63.40;;;;;;4992171;28;20026;-50
2021/04/10 05:03:02;;;;;;;7.25;1.40;;;21.00;63.30;;;;;;5003285;28;20022;-59
2021/04/10 05:05:28;;;;;;;2.33;1.10;;;21.00;63.20;;;;;;5007009;28;20065;-53
2021/04/10 05:07:53;;;;;;;8.00;2.38;;;21.00;63.40;;;;;;5010341;28;20091;-58
2021/04/10 05:10:19;;;;;;;3.60;1.48;;;21.00;63.70;;;;;;5009733;28;20028;-63
2021/04/10 05:12:45;;;;;;;4.00;1.50;;;21.00;63.80;;;;;;5011344;28;20034;-62
2021/04/10 05:15:11;;;;;;;4.43;1.35;;;21.00;63.90;;;;;;5010840;28;20080;-61
2021/04/10 05:17:37;;;;;;;6.70;1.15;;;21.00;64.10;;;;;;5010733;28;20042;-60
2021/04/10 05:20:03;;;;;;;2.85;1.10;;;21.00;64.30;;;;;;5011111;28;20026;-54
2021/04/10 05:22:29;;;;;;;4.35;1.48;;;21.00;64.30;;;;;;5010689;28;20061;-57
2021/04/10 05:24:55;;;;;;;3.15;1.30;;;20.90;64.50;;;;;;5009359;28;20062;-66
2021/04/10 05:27:20;;;;;;;3.00;1.25;;;20.90;64.50;;;;;;5010892;28;20026;-50
2021/04/10 05:29:46;;;;;;;4.70;1.25;;;20.90;64.70;;;;;;5010563;28;20038;-51
2021/04/10 05:32:12;;;;;;;8.98;1.40;;;20.90;65.00;;;;;;5010587;28;20760;-48
2021/04/10 05:34:37;;;;;;;5.90;1.88;;;20.90;64.80;;;;;;5009584;28;20112;-52
2021/04/10 05:37:03;;;;;;;2.80;1.30;;;20.90;65.00;;;;;;5008086;28;20034;-45
2021/04/10 05:39:29;;;;;;;2.22;1.08;;;20.90;65.00;;;;;;5009048;28;20029;-46
2021/04/10 05:41:54;;;;;;;4.20;1.27;;;20.90;64.70;;;;;;5009244;28;20074;-51
2021/04/10 05:44:20;;;;;;;3.33;1.35;;;20.90;64.40;;;;;;5009614;28;20026;-47
2021/04/10 05:46:46;;;;;;;8.30;1.40;;;20.90;64.30;;;;;;5009301;28;20367;-51
2021/04/10 05:49:11;;;;;;;4.78;1.80;;;20.90;64.20;;;;;;5009741;28;20026;-53
2021/04/10 05:51:37;;;;;;;3.60;1.50;;;20.90;64.10;;;;;;5010025;28;20102;-49
2021/04/10 05:54:03;;;;;;;4.78;1.60;;;20.90;64.00;;;;;;5027244;28;20029;-48
2021/04/10 05:56:29;;;;;;;6.93;1.45;;;20.90;64.00;;;;;;5024532;28;20056;-49
2021/04/10 05:58:54;;;;;;;5.78;1.40;;;20.90;64.00;;;;;;5008587;28;20467;-53
2021/04/10 06:01:20;;;;;;;5.30;1.75;;;20.90;63.90;;;;;;5009967;28;20025;-54
2021/04/10 06:03:46;;;;;;;2.40;1.02;;;20.90;64.00;;;;;;5007076;28;20494;-59
2021/04/10 06:06:12;;;;;;;6.30;1.20;;;20.90;63.90;;;;;;5008050;28;20542;-64
2021/04/10 06:08:38;;;;;;;3.47;1.27;;;20.90;63.90;;;;;;5007854;28;20510;-62
2021/04/10 06:11:04;;;;;;;3.58;1.42;;;20.90;63.80;;;;;;5009608;28;20032;-61
2021/04/10 06:13:30;;;;;;;5.93;1.20;;;20.90;63.70;;;;;;5009263;28;20030;-54
2021/04/10 06:15:55;;;;;;;6.50;1.17;;;20.90;63.80;;;;;;5009745;28;20479;-56
2021/04/10 06:18:21;;;;;;;4.88;1.52;;;20.90;63.70;;;;;;5009403;28;20033;-54
2021/04/10 06:20:47;;;;;;;2.60;1.15;;;20.90;63.70;;;;;;5008291;28;20030;-62
2021/04/10 06:23:12;;;;;;;3.00;1.30;;;20.90;63.80;;;;;;5008348;28;20360;-58
2021/04/10 06:25:38;;;;;;;10.02;1.45;;;20.90;64.30;;;;;;5007900;28;20022;-54
2021/04/10 06:28:05;;;;;;;2.08;1.10;;;20.90;64.30;;;;;;5008788;28;20522;-60
2021/04/10 06:30:31;;;;;;;5.35;1.27;;;20.90;64.00;;;;;;5014077;28;20495;-54
2021/04/10 06:32:56;;;;;;;2.63;1.30;;;20.90;63.80;;;;;;5014861;28;20026;-56
2021/04/10 06:35:22;;;;;;;6.03;1.45;;;20.90;63.90;;;;;;4999924;28;20041;-60
2021/04/10 06:37:48;;;;;;;4.47;1.40;;;20.90;63.80;;;;;;5008685;28;20037;-59
2021/04/10 06:40:14;;;;;;;2.67;1.17;;;20.90;63.70;;;;;;5010117;28;20418;-63
2021/04/10 06:42:42;;;;;;;3.50;1.13;;;20.90;63.50;;;;;;5010774;28;20054;-65
2021/04/10 06:45:09;;;;;;;5.40;1.30;;;20.90;63.30;;;;;;5009420;28;20022;-69
2021/04/10 06:47:35;;;;;;;4.75;1.30;;;20.90;63.10;;;;;;5009746;28;20099;-69
2021/04/10 06:50:04;;;;;;;5.18;1.10;;;20.90;62.90;;;;;;5009681;28;20382;-69
2021/04/10 06:52:30;;;;;;;6.07;1.77;;;20.90;62.80;;;;;;5007691;28;20445;-70
2021/04/10 06:55:02;;;;;;;5.47;1.73;;;20.90;60.10;;;;;;5009103;28;20474;-69
2021/04/10 06:57:35;;;;;;;6.15;1.13;;;20.80;57.90;;;;;;5008149;28;20033;-61
2021/04/10 07:00:09;;;;;;;6.13;1.70;;;20.80;59.90;;;;;;5006310;28;20026;-61
2021/04/10 07:02:37;;;;;;;4.93;1.70;;;20.80;59.60;;;;;;5005656;28;20736;-55
2021/04/10 07:05:04;;;;;;;5.65;1.40;;;20.80;59.80;;;;;;5006801;28;20018;-54
2021/04/10 07:07:29;;;;;;;3.25;1.45;;;20.80;60.00;;;;;;5007452;28;20026;-51
2021/04/10 07:09:57;;;;;;;6.85;1.63;;;20.80;60.00;;;;;;5008387;28;20395;-57
2021/04/10 07:12:22;;;;;;;5.88;2.20;;;20.80;60.00;;;;;;5008939;28;20025;-54
2021/04/10 07:14:48;;;;;;;8.07;1.95;;;20.80;60.00;;;;;;5006912;28;20033;-53
2021/04/10 07:17:15;;;;;;;5.40;1.63;;;20.90;60.00;;;;;;5007891;28;20029;-59
2021/04/10 07:19:41;;;;;;;5.10;1.42;;;20.80;59.90;;;;;;5010467;28;20026;-60
2021/04/10 07:22:15;;;;;;;7.13;1.90;;;20.90;59.90;;;;;;5028201;28;20030;-47
2021/04/10 07:24:42;;;;;;;3.55;1.60;;;20.90;59.80;;;;;;5012255;28;20029;-48
2021/04/10 07:27:14;;;;;;;4.82;1.65;;;20.90;59.70;;;;;;5013587;28;20030;-59
2021/04/10 07:29:43;;;;;;;4.78;1.92;;;20.90;59.40;;;;;;5008244;28;20460;-63
2021/04/10 07:32:27;;;;;;;4.82;1.52;;;20.90;58.20;;;;;;5008618;28;20033;-61
2021/04/10 07:34:55;;;;;;;5.82;1.80;;;20.90;57.80;;;;;;4990259;28;20037;-56
2021/04/10 07:37:32;;;;;;;;;;;20.90;56.90;;;;;;5009427;28;20033;-58
2021/04/10 07:39:59;;;;;;;5.32;2.00;;;20.90;57.20;;;;;;5011509;28;20392;-64
2021/04/10 07:42:27;;;;;;;5.45;2.08;;;20.90;57.30;;;;;;5011339;28;20038;-59
2021/04/10 07:44:52;;;;;;;5.53;1.90;;;20.90;57.20;;;;;;5012280;28;20507;-56
2021/04/10 07:47:19;;;;;;;6.05;2.13;;;20.80;57.30;;;;;;5011423;28;20022;-53
2021/04/10 07:49:45;;;;;;;6.68;2.03;;;20.80;57.10;;;;;;5009672;28;20094;-55
2021/04/10 07:52:10;;;;;;;6.80;1.77;;;20.80;56.60;;;;;;5015147;28;20033;-52
2021/04/10 07:54:38;;;;;;;8.50;2.17;;;20.80;56.30;;;;;;5015566;28;20049;-64
2021/04/10 07:57:10;;;;;;;4.30;1.83;;;20.80;56.70;;;;;;5012357;28;20520;-61
2021/04/10 07:59:53;;;;;;;5.28;2.13;;;20.80;56.70;;;;;;5009874;28;20062;-54
2021/04/10 08:02:21;;;;;;;17.60;2.45;;;20.80;56.60;;;;;;5008916;28;20034;-64
2021/04/10 08:05:00;;;;;;;17.13;2.75;;;20.80;57.00;;;;;;5011133;28;20054;-54
2021/04/10 08:07:29;;;;;;;23.67;3.53;;;20.80;57.40;;;;;;5009979;28;20038;-61
2021/04/10 08:10:07;;;;;;;14.70;2.20;;;20.80;57.30;;;;;;5010777;28;20286;-61
2021/04/10 08:12:37;;;;;;;28.35;4.05;;;20.80;57.30;;;;;;5011283;28;20057;-61
2021/04/10 08:15:06;;;;;;;16.08;5.95;;;20.90;57.40;;;;;;5011327;28;20505;-59
2021/04/10 08:17:42;;;;;;;26.88;6.20;;;20.90;57.90;;;;;;5011870;28;20513;-55
2021/04/10 08:20:24;;;;;;;20.85;5.72;;;20.90;60.50;;;;;;5010033;28;20525;-61
2021/04/10 08:23:11;;;;;;;11.55;3.30;;;21.00;62.90;;;;;;5011803;28;20543;-59
2021/04/10 08:25:36;;;;;;;17.92;4.80;;;21.00;61.30;;;;;;5026325;28;20561;-64
2021/04/10 08:28:02;;;;;;;29.60;8.85;;;21.00;63.50;;;;;;5010508;28;20105;-58
2021/04/10 08:30:28;;;;;;;18.65;5.30;;;21.00;64.20;;;;;;5010084;28;20036;-61
2021/04/10 08:32:53;;;;;;;16.13;5.22;;;21.10;66.00;;;;;;5011611;28;20101;-58
2021/04/10 08:35:19;;;;;;;16.30;4.18;;;21.10;67.70;;;;;;5010154;28;20037;-58
2021/04/10 08:37:58;;;;;;;18.58;6.28;;;21.20;65.70;;;;;;5010584;28;20044;-62
2021/04/10 08:40:24;;;;;;;13.02;5.88;;;21.20;67.50;;;;;;5010780;28;20033;-60
2021/04/10 08:42:54;;;;;;;17.85;5.50;;;21.20;69.00;;;;;;4998134;28;20037;-58
2021/04/10 08:45:29;;;;;;;29.90;6.50;;;21.20;70.30;;;;;;4998120;28;20030;-65
2021/04/10 08:47:57;;;;;;;23.90;7.60;;;21.20;72.00;;;;;;5011272;28;20445;-63
2021/04/10 08:50:24;;;;;;;44.67;9.40;;;21.30;72.00;;;;;;5009688;28;20471;-61
2021/04/10 08:52:50;;;;;;;22.10;9.70;;;21.30;73.80;;;;;;5010522;28;20099;-53
2021/04/10 08:55:15;;;;;;;16.48;8.57;;;21.30;76.20;;;;;;5010327;28;20788;-59
2021/04/10 08:57:43;;;;;;;25.45;9.05;;;21.30;75.60;;;;;;5041392;28;20038;-64
2021/04/10 09:00:30;;;;;;;25.30;8.85;;;21.30;76.40;;;;;;5006062;28;20032;-62
2021/04/10 09:02:58;;;;;;;25.58;9.75;;;21.30;75.80;;;;;;5010935;28;20049;-58
2021/04/10 09:05:45;;;;;;;34.10;9.77;;;21.40;76.40;;;;;;5008787;28;20042;-59
2021/04/10 09:08:23;;;;;;;19.50;6.97;;;21.40;76.70;;;;;;5009639;28;20430;-57
2021/04/10 09:10:50;;;;;;;22.73;8.30;;;21.40;78.10;;;;;;5011226;28;20567;-54
2021/04/10 09:13:15;;;;;;;14.43;5.55;;;21.40;78.40;;;;;;5010514;28;20121;-58
2021/04/10 09:15:42;;;;;;;19.27;6.65;;;21.50;77.70;;;;;;5009842;28;20471;-60
2021/04/10 09:18:08;;;;;;;20.77;5.35;;;21.50;75.00;;;;;;5010862;28;20430;-50
2021/04/10 09:20:47;;;;;;;13.63;5.00;;;21.40;73.10;;;;;;5009227;28;20034;-61
2021/04/10 09:23:22;;;;;;;13.70;4.22;;;21.40;72.00;;;;;;5011069;28;20181;-56
2021/04/10 09:26:12;;;;;;;12.63;4.35;;;21.40;70.40;;;;;;5009919;28;20018;-59
2021/04/10 09:28:56;;;;;;;19.83;4.75;;;21.40;68.90;;;;;;5004873;28;20132;-58
2021/04/10 09:31:39;;;;;;;13.88;3.80;;;21.30;67.80;;;;;;5009766;28;20018;-57
2021/04/10 09:34:06;;;;;;;8.80;3.30;;;21.30;67.00;;;;;;5010855;28;20061;-60
2021/04/10 09:36:45;;;;;;;12.38;3.90;;;21.30;66.30;;;;;;5010354;28;20124;-59
2021/04/10 09:39:50;;;;;;;13.55;3.72;;;21.30;66.00;;;;;;5010305;28;20026;-60
2021/04/10 09:42:34;;;;;;;11.50;4.07;;;21.20;65.80;;;;;;5010935;28;20026;-59
2021/04/10 09:45:08;;;;;;;6.80;3.00;;;21.20;65.50;;;;;;5017810;28;20033;-58
2021/04/10 09:47:59;;;;;;;8.20;3.22;;;21.20;64.80;;;;;;5010882;28;20092;-60
2021/04/10 09:50:32;;;;;;;8.82;3.38;;;21.20;64.30;;;;;;5010682;28;20021;-56
2021/04/10 09:53:02;;;;;;;9.38;3.22;;;21.10;63.70;;;;;;5009693;28;20026;-60
2021/04/10 09:55:30;;;;;;;8.23;3.00;;;21.10;63.20;;;;;;5009672;28;20052;-56
2021/04/10 09:57:58;;;;;;;9.88;3.53;;;21.10;63.10;;;;;;5010485;28;20117;-59
2021/04/10 10:00:37;;;;;;;12.27;3.80;;;21.10;63.20;;;;;;5008908;28;20104;-59
2021/04/10 10:03:06;;;;;;;14.63;3.53;;;21.00;62.90;;;;;;5010464;28;20044;-60
2021/04/10 10:05:34;;;;;;;9.93;3.20;;;21.00;62.40;;;;;;5010128;28;20172;-58
2021/04/10 10:08:11;;;;;;;7.57;2.53;;;21.00;62.00;;;;;;4995239;28;20022;-60
2021/04/10 10:10:45;;;;;;;7.70;2.63;;;21.00;61.80;;;;;;5009150;28;20022;-59
2021/04/10 10:13:17;;;;;;;13.25;2.55;;;21.00;61.80;;;;;;5010176;28;20483;-58
2021/04/10 10:15:44;;;;;;;9.45;2.83;;;21.00;61.10;;;;;;5010181;28;20036;-59
2021/04/10 10:18:17;;;;;;;6.55;2.35;;;20.90;61.20;;;;;;5009933;28;20022;-60
2021/04/10 10:20:59;;;;;;;5.10;2.08;;;20.90;60.40;;;;;;5010335;28;20223;-56
2021/04/10 10:23:41;;;;;;;5.55;1.75;;;20.90;59.90;;;;;;5009004;28;20534;-60
2021/04/10 10:26:11;;;;;;;7.43;2.55;;;20.90;59.60;;;;;;5009660;28;20394;-58
2021/04/10 10:28:42;;;;;;;4.50;1.85;;;20.80;60.10;;;;;;5010156;28;20549;-61
2021/04/10 10:31:14;;;;;;;6.63;2.53;;;20.80;59.60;;;;;;5010545;28;20026;-59
2021/04/10 10:33:40;;;;;;;12.50;2.35;;;20.80;60.80;;;;;;5009996;28;20029;-58
2021/04/10 10:36:06;;;;;;;13.07;2.53;;;20.80;61.70;;;;;;5009986;28;20364;-57
2021/04/10 10:38:38;;;;;;;12.57;2.80;;;20.80;61.60;;;;;;5009767;28;20026;-59
2021/04/10 10:41:06;;;;;;;7.50;2.80;;;20.80;60.70;;;;;;5009988;28;20034;-59
2021/04/10 10:43:32;;;;;;;8.75;2.33;;;20.80;61.60;;;;;;5009980;28;20026;-64
2021/04/10 10:46:18;;;;;;;16.73;2.40;;;20.80;61.40;;;;;;5008413;28;20438;-61
2021/04/10 10:48:46;;;;;;;9.07;2.55;;;20.70;63.40;;;;;;5009898;28;20115;-57
2021/04/10 10:51:17;;;;;;;9.68;2.30;;;20.80;63.30;;;;;;5009376;28;20040;-60
2021/04/10 10:53:55;;;;;;;8.95;2.35;;;20.90;68.60;;;;;;5009131;28;20026;-60
2021/04/10 10:56:24;;;;;;;8.68;2.22;;;20.90;66.60;;;;;;5009110;28;20076;-58
2021/04/10 10:58:55;;;;;;;19.23;4.13;;;20.90;66.00;;;;;;5009562;28;20018;-60
2021/04/10 11:01:33;;;;;;;14.60;4.30;;;20.80;65.80;;;;;;5009301;28;20370;-59
2021/04/10 11:04:02;;;;;;;25.35;4.25;;;20.80;65.50;;;;;;5009497;28;20030;-57
2021/04/10 11:06:30;;;;;;;14.85;3.58;;;20.80;71.30;;;;;;5009285;28;20038;-62
2021/04/10 11:08:56;;;;;;;18.00;2.75;;;20.80;72.60;;;;;;5009318;28;20101;-61
2021/04/10 11:11:28;;;;;;;6.60;2.03;;;20.70;69.90;;;;;;5010087;28;20026;-61
2021/04/10 11:13:54;;;;;;;13.35;5.05;;;20.60;65.30;;;;;;5013531;28;20371;-59
2021/04/10 11:16:20;;;;;;;15.40;6.47;;;20.50;62.80;;;;;;5013293;28;20073;-60
2021/04/10 11:18:52;;;;;;;10.18;4.30;;;20.50;62.60;;;;;;5013433;28;20046;-59
2021/04/10 11:21:29;;;;;;;15.77;3.55;;;20.40;62.70;;;;;;5012631;28;20037;-60
2021/04/10 11:24:13;;;;;;;7.03;2.15;;;20.40;62.20;;;;;;5013373;28;20116;-59
2021/04/10 11:26:42;;;;;;;6.65;1.77;;;20.30;60.90;;;;;;5013259;28;20041;-55
2021/04/10 11:29:31;;;;;;;5.07;2.05;;;20.30;61.10;;;;;;5012919;28;20114;-55
2021/04/10 11:32:15;;;;;;;;;;;20.20;62.50;;;;;;5014181;28;20353;-60
2021/04/10 11:34:53;;;;;;;14.52;2.65;;;20.20;63.60;;;;;;5012844;28;19946;-56
2021/04/10 11:37:22;;;;;;;12.98;2.53;;;20.30;63.70;;;;;;5013245;28;20037;-50
2021/04/10 11:40:03;;;;;;;5.45;2.53;;;20.40;63.80;;;;;;5013713;28;20594;-59
2021/04/10 11:42:51;;;;;;;12.88;3.67;;;20.40;63.70;;;;;;5008590;28;20202;-55
2021/04/10 11:45:37;;;;;;;13.20;2.70;;;20.50;63.70;;;;;;5009831;28;20116;-58
2021/04/10 11:48:20;;;;;;;14.02;2.50;;;20.50;63.80;;;;;;5012065;28;20034;-60
2021/04/10 11:50:52;;;;;;;8.70;2.60;;;20.60;64.00;;;;;;5009366;28;20065;-51
2021/04/10 11:53:27;;;;;;;5.13;2.10;;;20.60;63.80;;;;;;5012030;28;20045;-58
2021/04/10 11:55:57;;;;;;;11.50;2.92;;;20.60;64.40;;;;;;5012289;28;20441;-56
2021/04/10 11:58:41;;;;;;;13.68;2.40;;;20.70;65.00;;;;;;5012393;28;20037;-56
2021/04/10 12:01:14;;;;;;;13.38;3.30;;;20.70;65.60;;;;;;5012088;28;20069;-60
2021/04/10 12:03:50;;;;;;;10.05;3.20;;;20.70;68.50;;;;;;5002193;28;20394;-57
2021/04/10 12:06:31;;;;;;;15.63;3.37;;;20.80;71.00;;;;;;5012351;28;20060;-56
2021/04/10 12:09:07;;;;;;;13.85;3.95;;;20.80;73.20;;;;;;5012405;28;20057;-58
2021/04/10 12:11:34;;;;;;;13.73;3.45;;;20.80;73.80;;;;;;5013049;28;20438;-52
2021/04/10 12:14:06;;;;;;;8.55;3.10;;;20.90;73.50;;;;;;5012386;28;20386;-54
2021/04/10 12:16:35;;;;;;;10.23;3.28;;;20.90;73.30;;;;;;5012850;28;20076;-56
2021/04/10 12:19:01;;;;;;;15.23;3.08;;;20.90;73.10;;;;;;5010670;28;20080;-56
2021/04/10 12:21:27;;;;;;;10.55;3.33;;;20.90;72.70;;;;;;5012259;28;20038;-58
2021/04/10 12:23:53;;;;;;;10.43;3.05;;;20.90;72.50;;;;;;5011674;28;20093;-51
2021/04/10 12:26:19;;;;;;;8.20;3.53;;;20.90;71.90;;;;;;5010955;28;20446;-55
2021/04/10 12:28:45;;;;;;;12.07;3.00;;;20.90;71.60;;;;;;5011273;28;20485;-57
2021/04/10 12:31:10;;;;;;;11.07;3.05;;;20.90;70.70;;;;;;5011970;28;20030;-55
2021/04/10 12:33:40;;;;;;;9.40;3.08;;;20.90;69.80;;;;;;5008805;28;20586;-57
2021/04/10 12:36:07;;;;;;;8.23;2.35;;;20.90;69.40;;;;;;5011179;28;20042;-55
2021/04/10 12:38:33;;;;;;;;;;;20.80;69.20;;;;;;5011753;28;20014;-57
2021/04/10 12:40:59;;;;;;;4.82;2.63;;;20.80;69.30;;;;;;5012001;28;19976;-56
2021/04/10 12:43:25;;;;;;;8.55;2.70;;;20.80;69.10;;;;;;5011772;28;20022;-53
2021/04/10 12:45:50;;;;;;;10.32;3.15;;;20.80;68.90;;;;;;5010275;28;20052;-58
2021/04/10 12:48:16;;;;;;;7.63;3.05;;;20.80;69.40;;;;;;5010968;28;20440;-58
2021/04/10 12:50:42;;;;;;;5.40;2.60;;;20.80;70.50;;;;;;5006341;28;20041;-52
2021/04/10 12:53:07;;;;;;;6.03;2.35;;;20.90;70.10;;;;;;5000968;28;20021;-59
2021/04/10 12:55:33;;;;;;;13.52;3.45;;;20.90;70.10;;;;;;5011344;28;20049;-56
2021/04/10 12:57:59;;;;;;;6.35;3.10;;;20.80;70.00;;;;;;5010088;28;20466;-52